Sultan Syarif Kasim Ii (Simpang Tiga) Airport
WIBB : now visible

Airfield :











YOU CAN JOIN US ON...

 
LOGIN :

Register | Disclaimer

   EN    FR    IT 

 









Legend :    VFR   Marginal VFR   IFR   Intensive IFR   Very Intensive IFR
Visi :
Ceiling :
>= 8 km
>= 3000ft
5 to 8 km
1000 to 3000 ft
1500m to 5 km
500 to 1000 ft
800 to 1500m
200 to 500 ft
< 800m
< 200 ft
Symbols :   Thunderstorms  Fog  Heavy snow  Heavy precipitations  Wind > 20 kt






- Airport Elevation : 102 ft
- IATA code : PKU


WIBB - Sultan Syarif Kasim Ii (Simpang Tiga)

CURRENT METAR :
  • 180130Z 00000KT 7000 SCT014 24/21 Q1011 NOSIG

EXPIRED METARs :
  • 180100Z 34005KT 7000 SCT014 22/20 Q1011 NOSIG
  • 180030Z 00000KT 7000 SCT014 22/20 Q1011 NOSIG
  • 180000Z 00000KT 7000 SCT014 22/20 Q1011 NOSIG
  • 172330Z 00000KT 7000 BKN010 21/20 Q1010 NOSIG

Expired Forecast.
WIIF FIR / Asia



MET'MAP, your aeronautical weather chart ! - Copyright ORBIFLY December 2007 - Disclaimer

ORBIFLY MET'MAP TEAM :

Programming & Development : Alexandra Zaïnal
Concept & original design : Baudouin d'Aumeries
Assistance for programming : Marc-Olivier Méhu
Technical & hardware support : Manuel Goepfert

Contact : metmap@orbifly.com




SOURCES & CREDITS :

   NOAA       Earth
Advisory